Orbital elements of YAOGAN-31 02C
| Launched | 28 January 2021 |
| Flight ended | – |
| Launch site | Jiuquan Space Center, PRC |
| Owner | People's Republic of China |
| NORAD ID | 47536 |
| Date fetched |
Epoch osculation |
Inc. [°] |
Ecc. | RA asc node [hr] |
Arg Peri. [°] |
Mean anom [°] |
Mean motion [rev/day] |
Abs. mag |
| Date fetched |
Epoch osculation |
Inc. [°] |
Ecc. | RA asc node [hr] |
Arg Peri. [°] |
Mean anom [°] |
Mean motion [rev/day] |
Abs. mag |
| 2026 May 07 17:58 | 2026 May 07 07:32:43 | 63.4038 | 0.01724 | 16.4788 | 0.5601 | 359.5588 | 13.45446 | – |
| 2026 May 06 17:57 | 2026 May 06 11:55:25 | 63.4038 | 0.01724 | 16.6189 | 0.5607 | 359.5588 | 13.45446 | – |
| 2026 May 05 17:57 | 2026 May 05 12:44:03 | 63.4038 | 0.01723 | 16.7844 | 0.5576 | 359.5588 | 13.45446 | – |
| 2026 May 04 17:57 | 2026 May 04 11:45:40 | 63.4037 | 0.01722 | 16.9627 | 0.5584 | 359.5588 | 13.45446 | – |
| 2026 May 03 17:57 | 2026 May 03 12:34:18 | 63.4034 | 0.01721 | 17.1282 | 0.5608 | 359.5588 | 13.45446 | – |
| 2026 May 02 17:57 | 2026 May 02 13:22:57 | 63.4030 | 0.01720 | 17.2938 | 0.5580 | 359.5588 | 13.45446 | – |
| 2026 May 01 17:56 | 2026 May 01 12:24:33 | 63.4027 | 0.01719 | 17.4721 | 0.5576 | 359.5588 | 13.45446 | – |
| 2026 Apr 30 17:56 | 2026 Apr 30 13:13:12 | 63.4026 | 0.01718 | 17.6376 | 0.5591 | 359.5588 | 13.45446 | – |
| 2026 Apr 29 17:57 | 2026 Apr 29 12:14:49 | 63.4027 | 0.01717 | 17.8159 | 0.5580 | 359.5588 | 13.45446 | – |
| 2026 Apr 28 17:56 | 2026 Apr 28 13:03:27 | 63.4028 | 0.01717 | 17.9815 | 0.5567 | 359.5588 | 13.45446 | – |
| 2026 Apr 27 17:58 | 2026 Apr 27 12:05:04 | 63.4029 | 0.01716 | 18.1598 | 0.5573 | 359.5588 | 13.45446 | – |
| 2026 Apr 26 17:58 | 2026 Apr 26 12:53:42 | 63.4033 | 0.01715 | 18.3253 | 0.5560 | 359.5588 | 13.45446 | – |
| 2026 Apr 25 17:58 | 2026 Apr 25 11:55:19 | 63.4033 | 0.01714 | 18.5036 | 0.5514 | 359.5588 | 13.45446 | – |
| 2026 Apr 24 17:59 | 2026 Apr 24 12:43:57 | 63.4034 | 0.01713 | 18.6691 | 0.5484 | 359.5588 | 13.45446 | – |
| 2026 Apr 23 17:57 | 2026 Apr 23 06:24:29 | 63.4034 | 0.01712 | 18.8856 | 0.5431 | 359.5588 | 13.45446 | – |
| 2026 Apr 22 17:57 | 2026 Apr 22 07:13:08 | 63.4033 | 0.01712 | 19.0511 | 0.5419 | 359.5588 | 13.45446 | – |
| 2026 Apr 21 17:57 | 2026 Apr 21 13:22:51 | 63.4031 | 0.01712 | 19.1785 | 0.5436 | 359.5588 | 13.45446 | – |
| 2026 Apr 20 17:57 | 2026 Apr 20 12:24:28 | 63.4029 | 0.01711 | 19.3568 | 0.5404 | 359.5588 | 13.45446 | – |
| 2026 Apr 19 17:58 | 2026 Apr 19 13:13:06 | 63.4029 | 0.01710 | 19.5224 | 0.5387 | 359.5588 | 13.45446 | – |
| 2026 Apr 18 17:56 | 2026 Apr 18 06:53:38 | 63.4031 | 0.01709 | 19.7389 | 0.5389 | 359.5588 | 13.45446 | – |
| 2026 Apr 16 17:57 | 2026 Apr 16 06:43:53 | 63.4037 | 0.01707 | 20.0827 | 0.5185 | 359.5588 | 13.45446 | – |
| 2026 Apr 14 17:57 | 2026 Apr 14 13:42:15 | 63.4044 | 0.01706 | 20.3756 | 0.5126 | 359.5588 | 13.45446 | – |
| 2026 Apr 13 17:57 | 2026 Apr 13 07:22:46 | 63.4045 | 0.01705 | 20.5921 | 0.5064 | 359.5588 | 13.45446 | – |
| 2026 Apr 12 17:57 | 2026 Apr 12 13:32:30 | 63.4047 | 0.01704 | 20.7194 | 0.5006 | 359.5588 | 13.45446 | – |
| 2026 Apr 11 17:57 | 2026 Apr 11 12:34:06 | 63.4048 | 0.01703 | 20.8977 | 0.4965 | 359.5588 | 13.45446 | – |
| 2026 Apr 10 17:58 | 2026 Apr 10 06:14:38 | 63.4046 | 0.01702 | 21.1141 | 0.4838 | 359.5588 | 13.45446 | – |